Weather History for Steamboat Springs, CO

Change the Weather History Date:

Thursday, August 22, 2013

  Actual Average Record
Temperature  
Mean Temperature 66 °F -  
Max Temperature 82 °F 79 °F 90 °F (1919)
Min Temperature 50 °F 40 °F 24 °F (1924)
Cooling Degree Days 1    
Growing Degree Days 16 (Base 50)    
Moisture  
Dew Point 38 °F    
Average Humidity 38    
Maximum Humidity 70    
Minimum Humidity 17    
Precipitation  
Precipitation 0.00 in - - ()
Sea Level Pressure  
Sea Level Pressure 30.30 in    
Wind  
Wind Speed 2 mph (WNW)    
Max Wind Speed 20 mph    
Max Gust Speed 24 mph    
Visibility 10 miles    
Events      
Averages and records for this station are not official NWS values.
T = Trace of Precipitation, MM = Missing Value Source: NWS Daily Summary

Daily Weather History Graph

Daily Weather History Graph

Search for Another Location

Airport:

Trip Planner

Search our weather history database for the weather conditions in past years. The results will help you decide how hot, cold, wet, or windy it might be!

Date:

Astronomy

Aug. 22, 2013 Rise Set
Actual Time 6:25 AM MDT 7:54 PM MDT
Civil Twilight 5:56 AM MDT 8:23 PM MDT
Nautical Twilight 5:22 AM MDT 8:57 PM MDT
Astronomical Twilight 4:45 AM MDT 9:33 PM MDT
Moon 8:39 PM MDT (8/22) 8:17 AM MDT (8/22)
Length of Visible Light 14h 26m
Length of Day
13h 29m
Waning Gibbous, 96% of the Moon is Illuminated
Aug 22
Waning Gibbous
Aug 28
Last Quarter
Sep 5
New
Sep 12
First Quarter
Sep 19
Full

Hourly Weather History & Observations

Time (MDT) Temp. Dew Point Humidity Pressure Visibility Wind Dir Wind Speed Gust Speed Precip Events Conditions
12:14 AM 62.1 °F 38.1 °F 41% 30.30 in 10.0 mi Calm Calm - N/A   Clear
12:34 AM 61.0 °F 39.2 °F 45% 30.30 in 10.0 mi Calm Calm - N/A   Clear
12:54 AM 61.3 °F 39.0 °F 44% 30.30 in 10.0 mi Calm Calm - N/A   Clear
1:14 AM 59.0 °F 39.2 °F 48% 30.30 in 10.0 mi Calm Calm - N/A   Clear
1:34 AM 59.7 °F 39.6 °F 47% 30.30 in 10.0 mi Calm Calm - N/A   Clear
1:54 AM 58.8 °F 39.2 °F 48% 30.30 in 10.0 mi Calm Calm - N/A   Clear
2:14 AM 57.7 °F 39.2 °F 50% 30.31 in 10.0 mi Calm Calm - N/A   Clear
2:34 AM 55.6 °F 40.1 °F 56% 30.31 in 10.0 mi Calm Calm - N/A   Clear
2:54 AM 55.2 °F 39.6 °F 56% 30.32 in 10.0 mi Calm Calm - N/A   Clear
3:14 AM 55.2 °F 39.2 °F 55% 30.32 in 10.0 mi East 5.8 mph - N/A   Clear
3:34 AM 54.0 °F 39.4 °F 58% 30.33 in 10.0 mi WNW 3.5 mph - N/A   Clear
3:54 AM 53.2 °F 39.7 °F 60% 30.33 in 10.0 mi Calm Calm - N/A   Clear
4:14 AM 55.0 °F 40.1 °F 57% 30.32 in 10.0 mi Calm Calm - N/A   Clear
4:34 AM 52.9 °F 40.1 °F 62% 30.32 in 10.0 mi Calm Calm - N/A   Clear
4:54 AM 52.2 °F 39.7 °F 63% 30.32 in 10.0 mi Calm Calm - N/A   Clear
5:14 AM 52.0 °F 40.1 °F 64% 30.33 in 10.0 mi Calm Calm - N/A   Clear
5:34 AM 50.4 °F 41.0 °F 70% 30.33 in 10.0 mi Calm Calm - N/A   Clear
5:54 AM 50.4 °F 40.3 °F 68% 30.34 in 10.0 mi Calm Calm - N/A   Clear
6:14 AM 51.3 °F 40.5 °F 67% 30.34 in 10.0 mi Calm Calm - N/A   Clear
6:34 AM 51.1 °F 40.1 °F 66% 30.35 in 10.0 mi Calm Calm - N/A   Clear
6:54 AM 53.1 °F 40.3 °F 62% 30.35 in 10.0 mi Calm Calm - N/A   Clear
7:14 AM 51.4 °F 40.8 °F 67% 30.36 in 10.0 mi Calm Calm - N/A   Clear
7:34 AM 54.7 °F 41.0 °F 60% 30.36 in 10.0 mi Calm Calm - N/A   Clear
7:54 AM 54.7 °F 41.2 °F 60% 30.36 in 10.0 mi Calm Calm - N/A   Clear
8:14 AM 55.9 °F 41.2 °F 58% 30.36 in 10.0 mi Calm Calm - N/A   Clear
8:34 AM 57.9 °F 40.1 °F 52% 30.36 in 10.0 mi Calm Calm - N/A   Clear
8:54 AM 59.7 °F 41.0 °F 50% 30.36 in 10.0 mi Calm Calm - N/A   Clear
9:14 AM 62.6 °F 40.3 °F 44% 30.36 in 10.0 mi Calm Calm - N/A   Clear
9:34 AM 66.0 °F 40.3 °F 39% 30.36 in 10.0 mi Calm Calm - N/A   Clear
9:54 AM 69.1 °F 38.7 °F 33% 30.35 in 10.0 mi Calm Calm - N/A   Clear
10:14 AM 70.7 °F 37.6 °F 30% 30.35 in 10.0 mi Calm Calm - N/A   Clear
10:34 AM 71.2 °F 36.0 °F 27% 30.36 in 10.0 mi Calm Calm - N/A   Clear
10:54 AM 73.6 °F 35.8 °F 25% 30.35 in 10.0 mi Calm Calm - N/A   Clear
11:14 AM 74.7 °F 35.4 °F 24% 30.34 in 10.0 mi North 4.6 mph - N/A   Clear
11:34 AM 77.4 °F 35.2 °F 22% 30.34 in 10.0 mi WNW 4.6 mph - N/A   Clear
11:54 AM 77.0 °F 35.4 °F 22% 30.33 in 10.0 mi Calm Calm - N/A   Clear
12:14 PM 77.9 °F 35.2 °F 21% 30.32 in 10.0 mi West 9.2 mph - N/A   Clear
12:34 PM 78.4 °F 35.2 °F 21% 30.32 in 10.0 mi SW 4.6 mph - N/A   Clear
12:54 PM 79.7 °F 34.9 °F 20% 30.31 in 10.0 mi SSW 5.8 mph - N/A   Clear
1:14 PM 79.7 °F 33.4 °F 19% 30.30 in 10.0 mi Calm Calm - N/A   Clear
1:34 PM 82.0 °F 33.6 °F 17% 30.29 in 10.0 mi SW 6.9 mph - N/A   Clear
1:54 PM 82.8 °F 34.0 °F 17% 30.29 in 10.0 mi WSW 8.1 mph - N/A   Clear
2:14 PM 79.7 °F 33.4 °F 19% 30.29 in 10.0 mi SW 10.4 mph - N/A   Clear
2:34 PM 77.9 °F 36.9 °F 23% 30.29 in 10.0 mi SSW 11.5 mph 17.3 mph N/A   Clear
2:54 PM 74.8 °F 39.2 °F 28% 30.29 in 10.0 mi SSW 4.6 mph - N/A   Clear
3:14 PM 76.5 °F 37.4 °F 24% 30.29 in 10.0 mi SW 4.6 mph - N/A   Clear
3:34 PM 79.5 °F 34.0 °F 19% 30.28 in 10.0 mi Calm Calm - N/A   Clear
3:54 PM 82.6 °F 33.1 °F 17% 30.27 in 10.0 mi WSW 3.5 mph - N/A   Clear
4:14 PM 82.0 °F 33.1 °F 17% 30.26 in 10.0 mi SSW 3.5 mph - N/A   Clear
4:34 PM 79.0 °F 34.3 °F 20% 30.25 in 10.0 mi WNW 5.8 mph - N/A   Clear
4:54 PM 79.3 °F 34.7 °F 20% 30.24 in 10.0 mi NW 12.7 mph - N/A   Clear
5:14 PM 78.8 °F 33.8 °F 20% 30.24 in 10.0 mi NW 8.1 mph - N/A   Clear
5:34 PM 79.3 °F 32.5 °F 18% 30.23 in 10.0 mi NW 6.9 mph - N/A   Clear
5:54 PM 80.4 °F 32.4 °F 18% 30.23 in 10.0 mi Calm Calm - N/A   Clear
6:14 PM 79.9 °F 32.4 °F 18% 30.22 in 10.0 mi NW 4.6 mph - N/A   Clear
6:34 PM 79.7 °F 33.8 °F 19% 30.22 in 10.0 mi WNW 8.1 mph - N/A   Clear
6:54 PM 77.9 °F 34.9 °F 21% 30.21 in 10.0 mi WNW 6.9 mph - N/A   Clear
7:14 PM 77.4 °F 35.1 °F 22% 30.21 in 10.0 mi NW 4.6 mph - N/A   Clear
7:34 PM 75.9 °F 35.8 °F 23% 30.22 in 10.0 mi Calm Calm - N/A   Clear
7:54 PM 72.0 °F 37.9 °F 29% 30.23 in 10.0 mi ENE 15.0 mph 18.4 mph N/A   Clear
8:14 PM 71.2 °F 37.9 °F 30% 30.23 in 10.0 mi NE 17.3 mph 21.9 mph N/A   Scattered Clouds
8:34 PM 71.1 °F 37.6 °F 29% 30.23 in 10.0 mi NE 19.6 mph 24.2 mph N/A   Scattered Clouds
8:54 PM 70.9 °F 36.9 °F 29% 30.24 in 10.0 mi NE 11.5 mph 20.7 mph N/A   Scattered Clouds
9:14 PM 69.6 °F 37.2 °F 31% 30.24 in 10.0 mi ESE 3.5 mph - N/A   Clear
9:34 PM 68.0 °F 39.7 °F 36% 30.24 in 10.0 mi North 3.5 mph - N/A   Clear
9:54 PM 67.1 °F 39.7 °F 37% 30.25 in 10.0 mi Calm Calm - N/A   Clear
10:14 PM 65.3 °F 39.7 °F 39% 30.26 in 10.0 mi Calm Calm - N/A   Clear
10:34 PM 64.4 °F 41.5 °F 43% 30.27 in 10.0 mi Calm Calm - N/A   Clear
10:54 PM 65.7 °F 41.0 °F 41% 30.28 in 10.0 mi East 4.6 mph - N/A   Scattered Clouds
11:14 PM 64.2 °F 40.3 °F 41% 30.28 in 10.0 mi ENE 5.8 mph - N/A   Scattered Clouds
11:34 PM 64.9 °F 40.3 °F 40% 30.28 in 10.0 mi ESE 5.8 mph - N/A   Scattered Clouds
11:54 PM 64.4 °F 40.6 °F 42% 30.28 in 10.0 mi Calm Calm - N/A   Scattered Clouds